createdAt,value
2019-01-03T00:01:59.755Z,96625.67
2019-01-03T00:04:52.983Z,96618.05
2019-01-03T00:07:40.734Z,96618.85
2019-01-03T00:10:41.992Z,96619.70
2019-01-03T00:13:30.931Z,96618.83
2019-01-03T00:16:23.863Z,96624.94
2019-01-03T00:19:04.777Z,96643.02
2019-01-03T00:21:58.251Z,96636.35
2019-01-03T00:24:45.753Z,96642.30
2019-01-03T00:27:43.500Z,96644.12
2019-01-03T00:30:31.169Z,96651.11
2019-01-03T00:33:13.851Z,96653.91
2019-01-03T00:36:10.120Z,96656.20
2019-01-03T00:38:52.499Z,96659.78
2019-01-03T00:41:46.487Z,96657.43
2019-01-03T00:44:47.620Z,96666.92
2019-01-03T00:47:33.637Z,96660.14
2019-01-03T00:50:22.532Z,96665.15
2019-01-03T00:53:10.439Z,96668.63
2019-01-03T00:55:59.252Z,96675.62
2019-01-03T00:58:43.148Z,96688.62
2019-01-03T01:01:30.765Z,96681.67
2019-01-03T01:04:18.555Z,96685.20
2019-01-03T01:07:03.640Z,96686.57
2019-01-03T01:09:46.618Z,96690.83
2019-01-03T01:12:35.515Z,96685.76
2019-01-03T01:15:23.689Z,96696.95
2019-01-03T01:18:15.667Z,96700.52
2019-01-03T01:21:03.459Z,96700.70
2019-01-03T01:24:04.379Z,96703.61
2019-01-03T01:26:51.220Z,96712.41
2019-01-03T01:29:37.362Z,96717.58
2019-01-03T01:32:18.778Z,96718.50
2019-01-03T01:35:15.306Z,96723.55
2019-01-03T01:38:03.041Z,96727.03
2019-01-03T01:40:50.460Z,96730.84
2019-01-03T01:43:48.553Z,96731.09
2019-01-03T01:46:49.574Z,96724.28
2019-01-03T01:49:38.447Z,96733.04
2019-01-03T01:52:26.540Z,96731.56
2019-01-03T01:55:13.507Z,96723.66
2019-01-03T01:58:08.503Z,96733.98
2019-01-03T02:01:00.589Z,96736.16
2019-01-03T02:03:41.273Z,96728.26
2019-01-03T02:06:26.491Z,96734.76
2019-01-03T02:09:14.265Z,96734.72
2019-01-03T02:12:15.569Z,96735.84
2019-01-03T02:15:06.021Z,96734.72
2019-01-03T02:18:06.112Z,96740.78
2019-01-03T02:21:01.086Z,96748.09
2019-01-03T02:23:49.973Z,96744.58
2019-01-03T02:26:32.853Z,96747.52
2019-01-03T02:29:23.123Z,96743.39
2019-01-03T02:32:24.319Z,96742.51
2019-01-03T02:35:28.257Z,96743.28
2019-01-03T02:38:26.314Z,96741.47
2019-01-03T02:41:21.214Z,96736.47
2019-01-03T02:44:19.316Z,96742.87
2019-01-03T02:47:06.807Z,96737.23
2019-01-03T02:49:53.040Z,96743.37
2019-01-03T02:52:57.264Z,96737.34
2019-01-03T02:55:48.179Z,96745.25
2019-01-03T02:58:35.869Z,96741.02
2019-01-03T03:01:40.007Z,96743.16
2019-01-03T03:04:30.133Z,96737.34
2019-01-03T03:07:20.708Z,96748.19
2019-01-03T03:10:10.514Z,96743.07
2019-01-03T03:13:08.178Z,96742.72
2019-01-03T03:15:59.870Z,96739.50
2019-01-03T03:18:51.566Z,96737.58
2019-01-03T03:21:35.042Z,96757.85
2019-01-03T03:24:19.014Z,96747.06
2019-01-03T03:27:16.915Z,96742.71
2019-01-03T03:30:04.622Z,96754.27
2019-01-03T03:32:55.795Z,96752.38
2019-01-03T03:35:44.551Z,96743.62
2019-01-03T03:38:36.398Z,96742.00
2019-01-03T03:41:40.452Z,96741.33
2019-01-03T03:44:27.933Z,96747.46
2019-01-03T03:47:06.769Z,96743.22
2019-01-03T03:49:54.338Z,96735.38
2019-01-03T03:52:37.218Z,96744.35
2019-01-03T03:55:24.835Z,96742.80
2019-01-03T03:58:12.404Z,96737.15
2019-01-03T04:01:00.219Z,96737.13
2019-01-03T04:03:47.944Z,96737.77
2019-01-03T04:06:35.528Z,96732.14
2019-01-03T04:09:27.886Z,96741.27
2019-01-03T04:12:16.780Z,96742.44
2019-01-03T04:15:12.931Z,96747.22
2019-01-03T04:17:57.630Z,96738.04
2019-01-03T04:20:49.271Z,96731.02
2019-01-03T04:23:53.567Z,96729.89
2019-01-03T04:26:42.377Z,96737.05
2019-01-03T04:29:43.491Z,96719.76
2019-01-03T04:32:31.190Z,96717.55
2019-01-03T04:35:14.422Z,96710.02
2019-01-03T04:38:02.055Z,96715.78
2019-01-03T04:40:49.585Z,96715.87
2019-01-03T04:43:38.458Z,96710.84
2019-01-03T04:46:39.689Z,96706.42
2019-01-03T04:49:27.911Z,96704.09
2019-01-03T04:52:34.926Z,96702.12
2019-01-03T04:55:22.620Z,96699.05
2019-01-03T04:58:20.673Z,96695.55
2019-01-03T05:01:12.725Z,96698.03
2019-01-03T05:04:02.281Z,96707.67
2019-01-03T05:06:47.842Z,96718.55
2019-01-03T05:09:36.667Z,96721.56
2019-01-03T05:12:31.442Z,96723.45
2019-01-03T05:15:18.883Z,96726.41
2019-01-03T05:18:06.609Z,96729.11
2019-01-03T05:20:47.901Z,96735.02
2019-01-03T05:23:48.690Z,96741.30
2019-01-03T05:26:33.188Z,96744.30
2019-01-03T05:29:20.808Z,96741.64
2019-01-03T05:32:08.901Z,96748.98
2019-01-03T05:34:57.754Z,96751.97
2019-01-03T05:37:52.478Z,96748.72
2019-01-03T05:40:44.190Z,96755.22
2019-01-03T05:43:25.728Z,96752.87
2019-01-03T05:46:20.644Z,96758.63
2019-01-03T05:49:03.235Z,96759.95
2019-01-03T05:51:59.437Z,96765.48
2019-01-03T05:54:50.989Z,96770.64
2019-01-03T05:57:42.906Z,96769.65
2019-01-03T06:00:44.892Z,96775.14
2019-01-03T06:03:25.589Z,96775.72
2019-01-03T06:06:32.863Z,96782.06
2019-01-03T06:09:27.823Z,96777.39
2019-01-03T06:12:29.093Z,96789.59
2019-01-03T06:15:17.957Z,96791.17
2019-01-03T06:18:05.847Z,96794.53
2019-01-03T06:21:00.864Z,96787.66
2019-01-03T06:24:04.850Z,96788.39
2019-01-03T06:26:52.579Z,96786.83
2019-01-03T06:29:41.406Z,96792.48
2019-01-03T06:32:29.206Z,96799.20
2019-01-03T06:35:16.722Z,96795.45
2019-01-03T06:38:04.723Z,96803.94
2019-01-03T06:40:59.697Z,96799.43
2019-01-03T06:43:46.236Z,96794.97
2019-01-03T06:46:33.819Z,96800.18
2019-01-03T06:49:29.084Z,96799.58
2019-01-03T06:52:23.521Z,96798.15
2019-01-03T06:55:11.485Z,96802.09
2019-01-03T06:57:59.004Z,96814.77
2019-01-03T07:01:06.038Z,96817.56
2019-01-03T07:04:13.393Z,96818.33
2019-01-03T07:07:01.237Z,96823.86
2019-01-03T07:09:53.387Z,96832.85
2019-01-03T07:12:54.433Z,96832.95
2019-01-03T07:15:43.317Z,96837.53
2019-01-03T07:18:31.233Z,96839.11
2019-01-03T07:21:28.222Z,96840.86
2019-01-03T07:24:20.232Z,96851.21
2019-01-03T07:27:09.080Z,96843.78
2019-01-03T07:29:58.022Z,96853.47
2019-01-03T07:32:46.865Z,96843.07
2019-01-03T07:35:34.710Z,96839.90
2019-01-03T07:38:18.191Z,96841.16
2019-01-03T07:41:05.882Z,96845.64
2019-01-03T07:43:45.973Z,96839.00
2019-01-03T07:46:38.010Z,96840.72
2019-01-03T07:49:25.793Z,96842.30
2019-01-03T07:52:13.754Z,96842.69
2019-01-03T07:55:05.508Z,96843.25
2019-01-03T07:57:57.268Z,96852.86
2019-01-03T08:00:45.099Z,96847.80
2019-01-03T08:03:32.682Z,96856.38
2019-01-03T08:06:21.578Z,96858.55
2019-01-03T08:09:16.606Z,96856.69
2019-01-03T08:12:11.384Z,96852.00
2019-01-03T08:14:55.844Z,96862.35
2019-01-03T08:17:57.144Z,96869.63
2019-01-03T08:20:44.932Z,96863.16
2019-01-03T08:23:41.151Z,96865.80
2019-01-03T08:26:29.071Z,96855.05
2019-01-03T08:29:16.532Z,96853.30
2019-01-03T08:32:08.333Z,96860.01
2019-01-03T08:35:03.462Z,96852.87
2019-01-03T08:38:09.948Z,96862.59
2019-01-03T08:41:01.742Z,96858.53
2019-01-03T08:44:08.325Z,96863.34
2019-01-03T08:46:56.511Z,96862.38
2019-01-03T08:49:43.329Z,96869.33
2019-01-03T08:52:31.143Z,96869.54
2019-01-03T08:55:32.299Z,96873.78
2019-01-03T08:58:12.171Z,96877.73
2019-01-03T09:00:59.941Z,96814.66
2019-01-03T09:03:48.662Z,96884.70
2019-01-03T09:06:36.483Z,96871.40
2019-01-03T09:09:29.177Z,96873.77
2019-01-03T09:12:30.014Z,96865.03
2019-01-03T09:15:31.132Z,96874.33
2019-01-03T09:18:20.124Z,96877.54
2019-01-03T09:21:27.567Z,96875.78
2019-01-03T09:24:22.376Z,96878.78
2019-01-03T09:27:12.399Z,96884.88
2019-01-03T09:29:56.981Z,96884.98
2019-01-03T09:32:44.605Z,96882.77
2019-01-03T09:35:36.738Z,96894.62
2019-01-03T09:38:25.649Z,96893.91
2019-01-03T09:41:15.507Z,96883.41
2019-01-03T09:44:03.363Z,96890.51
2019-01-03T09:46:33.244Z,96895.06
2019-01-03T09:49:03.123Z,96883.02
2019-01-03T09:51:33.152Z,96884.06
2019-01-03T09:54:02.988Z,96877.35
2019-01-03T09:56:32.862Z,96880.33
2019-01-03T09:59:02.781Z,96873.47
2019-01-03T10:01:32.731Z,96876.25
2019-01-03T10:04:02.632Z,96879.55
2019-01-03T10:06:32.568Z,96868.42
2019-01-03T10:09:02.586Z,96864.36
2019-01-03T10:11:32.808Z,96857.80
2019-01-03T10:14:02.784Z,96864.00
2019-01-03T10:16:32.738Z,96875.14
2019-01-03T10:19:02.734Z,96865.62
2019-01-03T10:21:32.703Z,96862.76
2019-01-03T10:24:02.568Z,96854.06
2019-01-03T10:26:32.616Z,96847.21
2019-01-03T10:29:02.560Z,96854.70
2019-01-03T10:31:32.597Z,96849.11
2019-01-03T10:34:02.744Z,96850.31
2019-01-03T10:36:32.655Z,96852.11
2019-01-03T10:39:04.007Z,96839.10
2019-01-03T10:41:33.915Z,96848.52
2019-01-03T10:44:04.126Z,96845.28
2019-01-03T10:46:34.079Z,96849.58
2019-01-03T10:49:04.050Z,96839.09
2019-01-03T10:51:34.135Z,96833.98
2019-01-03T10:54:04.019Z,96833.95
2019-01-03T10:56:33.951Z,96825.34
2019-01-03T10:59:03.869Z,96822.09
2019-01-03T11:01:33.740Z,96825.44
2019-01-03T11:04:03.592Z,96818.31
2019-01-03T11:06:33.541Z,96817.76
2019-01-03T11:09:03.921Z,96807.52
2019-01-03T11:11:33.740Z,96800.91
2019-01-03T11:14:03.670Z,96807.26
2019-01-03T11:16:33.602Z,96805.06
2019-01-03T11:19:03.623Z,96804.98
2019-01-03T11:21:33.513Z,96794.33
2019-01-03T11:24:03.685Z,96794.08
2019-01-03T11:26:33.517Z,96786.52
2019-01-03T11:29:03.534Z,96797.48
2019-01-03T11:31:33.405Z,96789.91
2019-01-03T11:34:03.225Z,96790.30
2019-01-03T11:36:33.165Z,96779.08
2019-01-03T11:39:04.376Z,96785.16
2019-01-03T11:41:34.288Z,96771.07
2019-01-03T11:44:04.207Z,96766.88
2019-01-03T11:46:34.245Z,96755.98
2019-01-03T11:49:04.252Z,96771.23
2019-01-03T11:51:34.125Z,96754.23
2019-01-03T11:54:04.025Z,96757.31
2019-01-03T11:56:33.898Z,96747.69
2019-01-03T11:59:03.815Z,96745.61
2019-01-03T12:01:33.809Z,96746.31
2019-01-03T12:04:05.049Z,96743.15
2019-01-03T12:06:35.034Z,96734.11
2019-01-03T12:09:06.732Z,96730.67
2019-01-03T12:11:36.853Z,96721.31
2019-01-03T12:14:06.757Z,96711.59
2019-01-03T12:16:36.694Z,96726.14
2019-01-03T12:19:06.690Z,96719.20
2019-01-03T12:21:36.535Z,96711.56
2019-01-03T12:24:06.493Z,96705.91
2019-01-03T12:26:36.604Z,96706.45
2019-01-03T12:29:07.672Z,96707.27
2019-01-03T12:31:37.607Z,96712.27
2019-01-03T12:34:07.508Z,96709.26
2019-01-03T12:36:37.476Z,96703.20
2019-01-03T12:39:07.976Z,96702.23
2019-01-03T12:41:37.864Z,96711.85
2019-01-03T12:44:07.788Z,96699.17
2019-01-03T12:46:37.750Z,96706.48
2019-01-03T12:49:07.663Z,96700.09
2019-01-03T12:51:37.626Z,96697.25
2019-01-03T12:54:07.527Z,96717.78
2019-01-03T12:56:37.572Z,96704.62
2019-01-03T12:59:07.485Z,96714.44
2019-01-03T13:01:37.487Z,96705.61
2019-01-03T13:04:07.515Z,96703.20
2019-01-03T13:06:37.418Z,96708.69
2019-01-03T13:09:15.272Z,96707.93
2019-01-03T13:11:45.140Z,96712.27
2019-01-03T13:14:15.087Z,96718.11
2019-01-03T13:16:45.048Z,96716.29
2019-01-03T13:19:14.896Z,96715.63
2019-01-03T13:21:44.901Z,96708.47
2019-01-03T13:24:15.980Z,96715.41
2019-01-03T13:26:45.836Z,96711.45
2019-01-03T13:29:15.772Z,96703.39
2019-01-03T13:31:45.880Z,96703.33
2019-01-03T13:34:16.105Z,96695.93
2019-01-03T13:36:47.822Z,96692.05
2019-01-03T13:39:17.702Z,96697.23
2019-01-03T13:41:48.495Z,96689.91
2019-01-03T13:44:18.457Z,96693.13
2019-01-03T13:46:48.420Z,96687.20
2019-01-03T13:49:18.379Z,96695.30
2019-01-03T13:51:48.350Z,96691.33
2019-01-03T13:54:18.359Z,96690.52
2019-01-03T13:56:48.309Z,96691.00
2019-01-03T13:59:18.283Z,96693.09
2019-01-03T14:01:48.218Z,96689.95
2019-01-03T14:04:18.129Z,96692.52
2019-01-03T14:06:48.134Z,96701.80
2019-01-03T14:09:18.239Z,96702.66
2019-01-03T14:11:48.271Z,96714.64
2019-01-03T14:14:18.198Z,96717.23
2019-01-03T14:16:48.124Z,96712.90
2019-01-03T14:19:18.047Z,96716.58
2019-01-03T14:21:48.132Z,96716.92
2019-01-03T14:24:18.086Z,96725.15
2019-01-03T14:26:48.068Z,96712.92
2019-01-03T14:29:20.775Z,96714.35
2019-01-03T14:31:50.668Z,96714.14
2019-01-03T14:34:20.496Z,96716.69
2019-01-03T14:36:50.347Z,96709.25
2019-01-03T14:39:20.215Z,96714.41
2019-01-03T14:41:50.114Z,96712.92
2019-01-03T14:44:19.981Z,96713.55
2019-01-03T14:46:49.933Z,96715.53
2019-01-03T14:49:19.903Z,96711.62
2019-01-03T14:51:49.907Z,96709.05
2019-01-03T14:54:19.792Z,96712.82
2019-01-03T14:56:49.688Z,96716.52
2019-01-03T14:59:19.546Z,96706.33
2019-01-03T15:01:49.756Z,96707.11
2019-01-03T15:04:19.824Z,96702.45
2019-01-03T15:06:49.667Z,96710.13
2019-01-03T15:12:22.637Z,96706.98
2019-01-03T15:14:53.847Z,96709.13
2019-01-03T15:17:23.819Z,96713.55
2019-01-03T15:19:53.889Z,96709.83
2019-01-03T15:22:23.815Z,96705.16
2019-01-03T15:24:53.734Z,96712.20
2019-01-03T15:27:23.623Z,96720.36
2019-01-03T15:29:53.639Z,96705.70
2019-01-03T15:32:23.468Z,96713.11
2019-01-03T15:34:53.417Z,96712.00
2019-01-03T15:37:23.270Z,96711.00
2019-01-03T15:39:53.125Z,96713.70
2019-01-03T15:42:23.032Z,96717.66
2019-01-03T15:44:52.918Z,96715.06
2019-01-03T15:47:22.819Z,96715.87
2019-01-03T15:49:52.726Z,96715.34
2019-01-03T15:52:22.536Z,96707.84
2019-01-03T15:54:52.424Z,96711.10
2019-01-03T15:57:22.261Z,96717.45
2019-01-03T15:59:52.153Z,96700.83
2019-01-03T16:02:22.046Z,96702.54
2019-01-03T16:04:51.878Z,96696.41
2019-01-03T16:07:21.963Z,96698.69
2019-01-03T16:09:51.965Z,96686.27
2019-01-03T16:12:21.891Z,96681.78
2019-01-03T16:14:51.727Z,96676.27
2019-01-03T16:17:21.686Z,96668.16
2019-01-03T16:19:51.584Z,96669.34
2019-01-03T16:22:21.444Z,96672.48
2019-01-03T16:24:51.275Z,96691.94
2019-01-03T16:27:21.287Z,96673.39
2019-01-03T16:29:51.542Z,96674.47
2019-01-03T16:32:21.504Z,96670.63
2019-01-03T16:34:51.420Z,96665.77
2019-01-03T16:37:21.265Z,96680.16
2019-01-03T16:39:51.213Z,96670.89
2019-01-03T16:42:21.135Z,96668.64
2019-01-03T16:44:50.994Z,96675.47
2019-01-03T16:47:20.881Z,96681.78
2019-01-03T16:49:50.834Z,96674.19
2019-01-03T16:52:20.773Z,96671.80
2019-01-03T16:54:50.721Z,96672.05
2019-01-03T16:57:20.540Z,96666.88
2019-01-03T16:59:50.433Z,96671.41
2019-01-03T17:02:20.328Z,96677.92
2019-01-03T17:04:50.348Z,96668.55
2019-01-03T17:07:20.292Z,96675.84
2019-01-03T17:09:50.265Z,96677.20
2019-01-03T17:12:20.205Z,96689.00
2019-01-03T17:14:50.166Z,96680.18
2019-01-03T17:17:20.171Z,96687.53
2019-01-03T17:19:50.110Z,96685.40
2019-01-03T17:22:20.203Z,96690.48
2019-01-03T17:24:50.198Z,96690.78
2019-01-03T17:27:20.333Z,96700.34
2019-01-03T17:29:50.294Z,96687.83
2019-01-03T17:32:20.311Z,96692.17
2019-01-03T17:34:50.185Z,96685.45
2019-01-03T17:37:20.037Z,96676.70
2019-01-03T17:39:49.973Z,96685.14
2019-01-03T17:42:19.965Z,96683.77
2019-01-03T17:44:49.962Z,96685.91
2019-01-03T17:47:19.849Z,96685.94
2019-01-03T17:49:49.852Z,96693.45
2019-01-03T17:52:19.746Z,96683.31
2019-01-03T17:54:49.690Z,96686.37
2019-01-03T17:57:19.585Z,96690.41
2019-01-03T17:59:49.457Z,96683.31
2019-01-03T18:02:19.282Z,96681.14
2019-01-03T18:04:49.163Z,96692.58
2019-01-03T18:07:19.070Z,96691.64
2019-01-03T18:09:49.131Z,96676.05
2019-01-03T18:12:19.133Z,96685.42
2019-01-03T18:14:49.139Z,96690.50
2019-01-03T18:17:19.208Z,96683.60
2019-01-03T18:19:49.072Z,96683.93
2019-01-03T18:22:19.211Z,96699.53
2019-01-03T18:24:49.246Z,96687.44
2019-01-03T18:27:19.217Z,96687.81
2019-01-03T18:29:49.547Z,96674.03
2019-01-03T18:32:19.534Z,96678.66
2019-01-03T18:34:50.620Z,96680.00
2019-01-03T18:37:20.506Z,96684.59
2019-01-03T18:39:50.327Z,96674.59
2019-01-03T18:42:20.314Z,96684.76
2019-01-03T18:44:51.182Z,96687.56
2019-01-03T18:47:21.262Z,96690.45
2019-01-03T18:49:51.299Z,96691.77
2019-01-03T18:52:21.234Z,96691.55
2019-01-03T18:54:51.159Z,96695.39
2019-01-03T18:57:21.100Z,96701.45
2019-01-03T18:59:51.082Z,96692.94
2019-01-03T19:02:21.064Z,96695.95
2019-01-03T19:04:51.053Z,96693.32
2019-01-03T19:07:21.017Z,96696.02
2019-01-03T19:09:50.878Z,96687.58
2019-01-03T19:12:21.046Z,96698.94
2019-01-03T19:14:51.176Z,96680.69
2019-01-03T19:17:21.064Z,96684.88
2019-01-03T19:19:51.885Z,96688.45
2019-01-03T19:22:21.714Z,96698.81
2019-01-03T19:24:51.586Z,96697.27
2019-01-03T19:27:21.735Z,96711.80
2019-01-03T19:29:51.739Z,96696.02
2019-01-03T19:32:21.741Z,96693.67
2019-01-03T19:34:51.652Z,96705.38
2019-01-03T19:37:21.622Z,96697.86
2019-01-03T19:39:51.443Z,96692.59
2019-01-03T19:42:21.316Z,96700.06
2019-01-03T19:44:51.301Z,96701.42
2019-01-03T19:47:21.429Z,96707.67
2019-01-03T19:49:51.299Z,96699.05
2019-01-03T19:52:21.558Z,96700.20
2019-01-03T19:54:51.465Z,96687.82
2019-01-03T19:57:21.307Z,96691.09
2019-01-03T19:59:51.292Z,96692.99
2019-01-03T20:02:22.270Z,96688.58
2019-01-03T20:04:52.264Z,96692.27
2019-01-03T20:07:22.613Z,96695.11
2019-01-03T20:09:52.591Z,96692.57
2019-01-03T20:12:22.707Z,96696.23
2019-01-03T20:14:52.637Z,96693.03
2019-01-03T20:17:22.550Z,96690.33
2019-01-03T20:19:52.467Z,96702.23
2019-01-03T20:22:22.321Z,96694.03
2019-01-03T20:24:52.161Z,96692.44
2019-01-03T20:27:22.064Z,96687.73
2019-01-03T20:29:52.064Z,96694.02
2019-01-03T20:32:22.085Z,96707.48
2019-01-03T20:34:52.055Z,96699.70
2019-01-03T20:37:21.942Z,96709.56
2019-01-03T20:39:51.899Z,96705.24
2019-01-03T20:42:21.843Z,96710.16
2019-01-03T20:44:51.889Z,96699.39
2019-01-03T20:47:21.772Z,96701.42
2019-01-03T20:49:51.601Z,96697.91
2019-01-03T20:52:21.466Z,96693.36
2019-01-03T20:54:51.414Z,96690.52
2019-01-03T20:57:21.310Z,96686.83
2019-01-03T20:59:51.179Z,96694.73
2019-01-03T21:02:21.075Z,96693.17
2019-01-03T21:04:51.015Z,96691.45
2019-01-03T21:07:20.919Z,96694.20
2019-01-03T21:09:50.794Z,96699.47
2019-01-03T21:12:20.755Z,96703.17
2019-01-03T21:14:50.711Z,96706.55
2019-01-03T21:17:20.632Z,96719.75
2019-01-03T21:19:50.563Z,96695.48
2019-01-03T21:22:20.520Z,96716.14
2019-01-03T21:24:50.452Z,96719.55
2019-01-03T21:27:20.352Z,96721.27
2019-01-03T21:29:50.237Z,96720.09
2019-01-03T21:32:20.253Z,96716.39
2019-01-03T21:34:50.197Z,96726.77
2019-01-03T21:37:20.060Z,96719.89
2019-01-03T21:39:49.938Z,96722.84
2019-01-03T21:42:19.875Z,96726.88
2019-01-03T21:44:49.781Z,96725.38
2019-01-03T21:47:19.821Z,96723.55
2019-01-03T21:49:49.736Z,96730.07
2019-01-03T21:52:19.744Z,96722.41
2019-01-03T21:54:49.578Z,96727.58
2019-01-03T21:57:19.581Z,96731.23
2019-01-03T21:59:49.501Z,96728.97
2019-01-03T22:02:19.369Z,96736.33
2019-01-03T22:04:49.270Z,96727.81
2019-01-03T22:07:19.306Z,96729.38
2019-01-03T22:09:49.177Z,96729.38
2019-01-03T22:12:19.159Z,96726.77
2019-01-03T22:14:49.151Z,96720.40
2019-01-03T22:17:19.092Z,96729.65
2019-01-03T22:19:49.050Z,96726.23
2019-01-03T22:22:18.881Z,96726.59
2019-01-03T22:24:48.892Z,96724.64
2019-01-03T22:27:18.721Z,96715.70
2019-01-03T22:29:48.585Z,96723.64
2019-01-03T22:32:18.576Z,96727.31
2019-01-03T22:34:48.461Z,96726.39
2019-01-03T22:37:18.366Z,96737.48
2019-01-03T22:39:48.253Z,96736.38
2019-01-03T22:42:18.138Z,96731.00
2019-01-03T22:44:48.013Z,96732.72
2019-01-03T22:47:17.875Z,96721.19
2019-01-03T22:49:47.794Z,96723.91
2019-01-03T22:52:17.739Z,96729.22
2019-01-03T22:54:47.602Z,96726.91
2019-01-03T22:57:17.564Z,96726.42
2019-01-03T22:59:47.516Z,96728.26
2019-01-03T23:02:17.458Z,96724.58
2019-01-03T23:04:49.220Z,96725.88
2019-01-03T23:07:19.381Z,96727.69
2019-01-03T23:09:49.216Z,96732.70
2019-01-03T23:12:19.216Z,96747.52
2019-01-03T23:14:49.081Z,96742.64
2019-01-03T23:17:18.960Z,96734.66
2019-01-03T23:19:48.965Z,96730.38
2019-01-03T23:22:18.870Z,96720.61
2019-01-03T23:24:48.744Z,96726.31
2019-01-03T23:27:18.634Z,96727.03
2019-01-03T23:29:48.618Z,96723.66
2019-01-03T23:32:18.518Z,96725.91
2019-01-03T23:34:48.448Z,96733.65
2019-01-03T23:37:18.424Z,96731.13
2019-01-03T23:39:48.480Z,96726.23
2019-01-03T23:42:18.314Z,96735.02
2019-01-03T23:45:16.367Z,96735.89
2019-01-03T23:47:46.477Z,96738.13
2019-01-03T23:50:19.085Z,96734.78
2019-01-03T23:52:48.973Z,96736.80
2019-01-03T23:55:19.935Z,96724.30
2019-01-03T23:57:50.728Z,96723.89
